createdAt,value
2024-03-10T00:00:06.403Z,100183.09
2024-03-10T00:00:38.422Z,100180.47
2024-03-10T00:01:10.471Z,100181.31
2024-03-10T00:01:42.569Z,100177.75
2024-03-10T00:02:14.721Z,100176.06
2024-03-10T00:02:47.081Z,100179.53
2024-03-10T00:03:19.438Z,100179.38
2024-03-10T00:03:51.686Z,100174.78
2024-03-10T00:04:23.828Z,100176.66
2024-03-10T00:04:55.886Z,100175.00
2024-03-10T00:05:28.024Z,100174.03
2024-03-10T00:06:00.064Z,100166.19
2024-03-10T00:06:32.148Z,100178.22
2024-03-10T00:07:04.564Z,100171.19
2024-03-10T00:07:36.689Z,100163.47
2024-03-10T00:08:08.794Z,100164.31
2024-03-10T00:08:40.903Z,100167.88
2024-03-10T00:09:12.915Z,100168.81
2024-03-10T00:09:45.215Z,100162.88
2024-03-10T00:10:17.293Z,100163.91
2024-03-10T00:10:50.766Z,100154.63
2024-03-10T00:11:22.904Z,100152.94
2024-03-10T00:11:55.152Z,100163.06
2024-03-10T00:12:27.193Z,100157.69
2024-03-10T00:12:59.318Z,100145.03
2024-03-10T00:13:31.365Z,100158.63
2024-03-10T00:14:03.478Z,100152.44
2024-03-10T00:14:35.590Z,100155.78
2024-03-10T00:15:08.813Z,100150.63
2024-03-10T00:15:40.834Z,100148.25
2024-03-10T00:16:12.868Z,100145.88
2024-03-10T00:16:44.938Z,100145.97
2024-03-10T00:17:17.067Z,100141.56
2024-03-10T00:17:49.322Z,100144.94
2024-03-10T00:18:21.589Z,100137.91
2024-03-10T00:18:53.663Z,100150.16
2024-03-10T00:19:25.719Z,100140.75
2024-03-10T00:19:57.961Z,100141.56
2024-03-10T00:20:30.105Z,100140.53
2024-03-10T00:21:02.408Z,100140.41
2024-03-10T00:21:34.642Z,100134.47
2024-03-10T00:22:06.655Z,100140.53
2024-03-10T00:22:38.694Z,100132.78
2024-03-10T00:23:10.708Z,100144.69
2024-03-10T00:23:43.112Z,100138.84
2024-03-10T00:24:15.152Z,100148.59
2024-03-10T00:24:47.601Z,100146.81
2024-03-10T00:25:19.969Z,100151.81
2024-03-10T00:25:53.377Z,100151.00
2024-03-10T00:26:25.467Z,100152.78
2024-03-10T00:26:57.566Z,100156.34
2024-03-10T00:27:29.599Z,100152.06
2024-03-10T00:28:01.649Z,100152.06
2024-03-10T00:28:33.888Z,100151.34
2024-03-10T00:29:06.764Z,100155.75
2024-03-10T00:29:39.387Z,100150.75
2024-03-10T00:30:11.668Z,100146.69
2024-03-10T00:30:43.760Z,100139.88
2024-03-10T00:31:16.125Z,100146.56
2024-03-10T00:31:48.630Z,100144.88
2024-03-10T00:32:20.706Z,100140.59
2024-03-10T00:32:52.902Z,100138.09
2024-03-10T00:33:25.057Z,100130.56
2024-03-10T00:33:57.170Z,100138.91
2024-03-10T00:34:29.625Z,100141.84
2024-03-10T00:35:02.011Z,100126.97
2024-03-10T00:35:34.399Z,100130.53
2024-03-10T00:36:07.096Z,100127.31
2024-03-10T00:36:39.136Z,100133.16
2024-03-10T00:37:11.338Z,100125.53
2024-03-10T00:37:43.385Z,100131.63
2024-03-10T00:38:15.545Z,100129.84
2024-03-10T00:38:47.758Z,100129.00
2024-03-10T00:39:19.759Z,100134.00
2024-03-10T00:39:51.982Z,100133.16
2024-03-10T00:40:24.049Z,100137.56
2024-03-10T00:40:57.513Z,100134.09
2024-03-10T00:41:29.595Z,100131.38
2024-03-10T00:42:01.631Z,100135.53
2024-03-10T00:42:33.746Z,100135.66
2024-03-10T00:43:05.766Z,100136.63
2024-03-10T00:43:37.776Z,100133.25
2024-03-10T00:44:09.868Z,100138.50
2024-03-10T00:44:41.863Z,100138.72
2024-03-10T00:45:13.913Z,100133.50
2024-03-10T00:45:45.900Z,100131.00
2024-03-10T00:46:18.030Z,100129.44
2024-03-10T00:46:50.125Z,100135.59
2024-03-10T00:47:22.369Z,100127.75
2024-03-10T00:47:54.664Z,100124.53
2024-03-10T00:48:26.778Z,100125.38
2024-03-10T00:48:58.800Z,100126.31
2024-03-10T00:49:30.824Z,100124.75
2024-03-10T00:50:02.962Z,100127.59
2024-03-10T00:50:35.356Z,100120.81
2024-03-10T00:51:07.459Z,100121.53
2024-03-10T00:51:39.547Z,100126.88
2024-03-10T00:52:11.686Z,100115.59
2024-03-10T00:52:43.693Z,100121.88
2024-03-10T00:53:15.845Z,100128.78
2024-03-10T00:53:47.958Z,100121.88
2024-03-10T00:54:20.051Z,100121.88
2024-03-10T00:54:52.109Z,100126.25
2024-03-10T00:55:24.160Z,100123.78
2024-03-10T00:55:57.663Z,100123.25
2024-03-10T00:56:29.943Z,100121.50
2024-03-10T00:57:02.043Z,100118.38
2024-03-10T00:57:34.191Z,100115.97
2024-03-10T00:58:06.710Z,100118.59
2024-03-10T00:58:38.777Z,100116.91
2024-03-10T00:59:11.034Z,100115.97
2024-03-10T00:59:43.183Z,100122.97
2024-03-10T01:00:16.052Z,100120.38
2024-03-10T01:00:48.092Z,100117.84
2024-03-10T01:01:20.314Z,100116.63
2024-03-10T01:01:52.431Z,100124.38
2024-03-10T01:02:25.273Z,100112.56
2024-03-10T01:02:57.325Z,100114.56
2024-03-10T01:03:29.476Z,100106.50
2024-03-10T01:04:01.627Z,100105.19
2024-03-10T01:04:33.663Z,100101.59
2024-03-10T01:05:07.013Z,100106.81
2024-03-10T01:05:39.073Z,100110.19
2024-03-10T01:06:11.189Z,100100.66
2024-03-10T01:06:45.556Z,100104.94
2024-03-10T01:07:20.543Z,100102.34
2024-03-10T01:07:52.731Z,100108.41
2024-03-10T01:08:24.846Z,100106.13
2024-03-10T01:08:58.281Z,100111.34
2024-03-10T01:09:30.489Z,100104.94
2024-03-10T01:10:02.798Z,100106.81
2024-03-10T01:10:34.829Z,100107.97
2024-03-10T01:11:08.482Z,100106.13
2024-03-10T01:11:41.308Z,100107.06
2024-03-10T01:12:13.795Z,100109.56
2024-03-10T01:12:45.824Z,100107.06
2024-03-10T01:13:17.829Z,100105.19
2024-03-10T01:13:50.000Z,100105.88
2024-03-10T01:14:22.393Z,100111.25
2024-03-10T01:14:54.732Z,100107.66
2024-03-10T01:15:26.854Z,100108.63
2024-03-10T01:15:58.965Z,100106.94
2024-03-10T01:16:31.059Z,100110.28
2024-03-10T01:17:03.383Z,100112.19
2024-03-10T01:17:36.050Z,100113.13
2024-03-10T01:18:08.320Z,100108.72
2024-03-10T01:18:40.366Z,100110.41
2024-03-10T01:19:12.425Z,100111.25
2024-03-10T01:19:44.557Z,100112.56
2024-03-10T01:20:16.872Z,100119.25
2024-03-10T01:20:49.336Z,100120.78
2024-03-10T01:21:21.399Z,100114.25
2024-03-10T01:21:53.450Z,100122.59
2024-03-10T01:22:25.695Z,100118.81
2024-03-10T01:22:58.000Z,100122.88
2024-03-10T01:23:30.039Z,100133.97
2024-03-10T01:24:03.823Z,100122.66
2024-03-10T01:24:37.817Z,100128.59
2024-03-10T01:25:10.326Z,100130.28
2024-03-10T01:25:42.574Z,100137.88
2024-03-10T01:26:16.371Z,100119.72
2024-03-10T01:26:48.476Z,100125.41
2024-03-10T01:27:20.520Z,100122.72
2024-03-10T01:27:52.532Z,100126.16
2024-03-10T01:28:24.691Z,100123.66
2024-03-10T01:28:56.794Z,100122.59
2024-03-10T01:29:29.204Z,100127.00
2024-03-10T01:30:01.312Z,100121.78
2024-03-10T01:30:33.320Z,100123.44
2024-03-10T01:31:05.417Z,100121.53
2024-03-10T01:31:37.495Z,100125.09
2024-03-10T01:32:09.573Z,100125.94
2024-03-10T01:32:42.030Z,100131.91
2024-03-10T01:33:14.099Z,100127.38
2024-03-10T01:33:46.337Z,100132.28
2024-03-10T01:34:18.751Z,100131.78
2024-03-10T01:34:50.789Z,100128.22
2024-03-10T01:35:22.931Z,100129.56
2024-03-10T01:35:54.997Z,100127.75
2024-03-10T01:36:27.050Z,100122.41
2024-03-10T01:36:59.111Z,100113.50
2024-03-10T01:37:31.302Z,100122.94
2024-03-10T01:38:03.641Z,100117.47
2024-03-10T01:38:35.767Z,100116.28
2024-03-10T01:39:08.194Z,100118.66
2024-03-10T01:39:40.276Z,100116.28
2024-03-10T01:40:12.521Z,100117.81
2024-03-10T01:40:44.724Z,100114.16
2024-03-10T01:41:18.135Z,100114.03
2024-03-10T01:41:50.192Z,100114.03
2024-03-10T01:42:22.216Z,100113.22
2024-03-10T01:42:55.393Z,100114.41
2024-03-10T01:43:27.388Z,100112.50
2024-03-10T01:43:59.426Z,100113.44
2024-03-10T01:44:31.496Z,100109.03
2024-03-10T01:45:03.812Z,100110.63
2024-03-10T01:45:35.769Z,100114.03
2024-03-10T01:46:09.586Z,100120.34
2024-03-10T01:46:41.958Z,100119.41
2024-03-10T01:47:14.202Z,100116.66
2024-03-10T01:47:46.598Z,100116.56
2024-03-10T01:48:18.826Z,100122.63
2024-03-10T01:48:52.630Z,100113.69
2024-03-10T01:49:24.815Z,100119.78
2024-03-10T01:49:57.000Z,100121.44
2024-03-10T01:50:29.454Z,100118.84
2024-03-10T01:51:02.270Z,100121.09
2024-03-10T01:51:36.462Z,100122.75
2024-03-10T01:52:10.049Z,100127.88
2024-03-10T01:52:42.428Z,100120.78
2024-03-10T01:53:14.713Z,100120.78
2024-03-10T01:53:48.164Z,100113.03
2024-03-10T01:54:24.964Z,100118.16
2024-03-10T01:54:59.112Z,100122.56
2024-03-10T01:55:31.403Z,100117.06
2024-03-10T01:56:04.754Z,100112.78
2024-03-10T01:56:39.827Z,100113.38
2024-03-10T01:57:12.397Z,100109.94
2024-03-10T01:57:47.556Z,100112.78
2024-03-10T01:58:19.914Z,100105.41
2024-03-10T01:58:53.848Z,100106.94
2024-03-10T01:59:26.738Z,100108.16
2024-03-10T01:59:59.130Z,100109.72
2024-03-10T02:00:31.545Z,100108.75
2024-03-10T02:01:04.521Z,100108.66
2024-03-10T02:01:36.722Z,100106.88
2024-03-10T02:02:08.961Z,100103.31
2024-03-10T02:02:42.299Z,100100.78
2024-03-10T02:03:15.148Z,100106.75
2024-03-10T02:03:49.226Z,100105.94
2024-03-10T02:04:21.827Z,100102.47
2024-03-10T02:04:54.312Z,100099.00
2024-03-10T02:05:26.590Z,100095.44
2024-03-10T02:05:59.237Z,100098.06
2024-03-10T02:06:31.540Z,100105.19
2024-03-10T02:07:04.101Z,100099.94
2024-03-10T02:07:36.278Z,100100.78
2024-03-10T02:08:08.319Z,100102.34
2024-03-10T02:08:41.582Z,100100.44
2024-03-10T02:09:13.888Z,100103.16
2024-03-10T02:09:46.329Z,100099.59
2024-03-10T02:10:19.086Z,100098.78
2024-03-10T02:10:51.776Z,100093.66
2024-03-10T02:11:24.087Z,100090.09
2024-03-10T02:11:57.924Z,100099.13
2024-03-10T02:12:30.171Z,100089.63
2024-03-10T02:13:02.181Z,100095.66
2024-03-10T02:13:34.581Z,100104.16
2024-03-10T02:14:06.642Z,100100.69
2024-03-10T02:14:38.704Z,100101.38
2024-03-10T02:15:10.821Z,100093.44
2024-03-10T02:15:43.163Z,100100.94
2024-03-10T02:16:15.406Z,100104.25
2024-03-10T02:16:47.486Z,100098.09
2024-03-10T02:17:19.555Z,100092.84
2024-03-10T02:17:51.793Z,100091.06
2024-03-10T02:18:23.857Z,100098.19
2024-03-10T02:18:55.966Z,100091.31
2024-03-10T02:19:28.337Z,100091.06
2024-03-10T02:20:00.439Z,100091.91
2024-03-10T02:20:32.509Z,100092.00
2024-03-10T02:21:05.661Z,100090.56
2024-03-10T02:21:38.225Z,100083.91
2024-03-10T02:22:10.276Z,100076.03
2024-03-10T02:22:43.636Z,100078.66
2024-03-10T02:23:16.408Z,100080.44
2024-03-10T02:23:57.286Z,100080.44
2024-03-10T02:24:33.897Z,100082.38
2024-03-10T02:25:07.016Z,100072.84
2024-03-10T02:25:43.431Z,100073.31
2024-03-10T02:26:15.784Z,100081.28
2024-03-10T02:26:48.280Z,100082.13
2024-03-10T02:27:21.813Z,100077.72
2024-03-10T02:27:54.602Z,100075.94
2024-03-10T02:28:27.713Z,100077.97
2024-03-10T02:29:01.438Z,100080.59
2024-03-10T02:29:33.685Z,100077.72
2024-03-10T02:30:06.924Z,100075.81
2024-03-10T02:30:49.113Z,100078.66
2024-03-10T02:31:21.141Z,100086.41
2024-03-10T02:31:53.907Z,100074.38
2024-03-10T02:32:27.090Z,100077.47
2024-03-10T02:32:59.843Z,100079.16
2024-03-10T02:33:31.874Z,100071.16
2024-03-10T02:34:04.522Z,100084.16
2024-03-10T02:34:37.917Z,100072.75
2024-03-10T02:35:10.026Z,100076.19
2024-03-10T02:35:42.045Z,100084.06
2024-03-10T02:36:14.128Z,100078.91
2024-03-10T02:36:46.178Z,100080.59
2024-03-10T02:37:18.648Z,100069.88
2024-03-10T02:37:50.754Z,100082.03
2024-03-10T02:38:22.927Z,100071.41
2024-03-10T02:38:55.116Z,100073.34
2024-03-10T02:39:27.220Z,100069.63
2024-03-10T02:39:59.319Z,100068.78
2024-03-10T02:40:31.472Z,100066.78
2024-03-10T02:41:05.157Z,100065.13
2024-03-10T02:41:37.254Z,100061.44
2024-03-10T02:42:09.332Z,100060.81
2024-03-10T02:42:41.411Z,100077.59
2024-03-10T02:43:13.486Z,100058.44
2024-03-10T02:43:46.281Z,100069.72
2024-03-10T02:44:18.447Z,100075.09
2024-03-10T02:44:50.623Z,100072.72
2024-03-10T02:45:22.641Z,100078.78
2024-03-10T02:45:55.134Z,100070.91
2024-03-10T02:46:27.180Z,100074.16
2024-03-10T02:46:59.220Z,100078.44
2024-03-10T02:47:31.407Z,100067.75
2024-03-10T02:48:04.006Z,100069.28
2024-03-10T02:48:36.046Z,100070.81
2024-03-10T02:49:08.081Z,100069.97
2024-03-10T02:49:40.661Z,100074.88
2024-03-10T02:50:12.750Z,100073.81
2024-03-10T02:50:45.366Z,100067.75
2024-03-10T02:51:17.470Z,100069.53
2024-03-10T02:51:49.497Z,100071.06
2024-03-10T02:52:21.694Z,100064.03
2024-03-10T02:52:53.751Z,100063.09
2024-03-10T02:53:26.166Z,100069.19
2024-03-10T02:53:58.459Z,100070.81
2024-03-10T02:54:30.528Z,100061.19
2024-03-10T02:55:02.887Z,100065.47
2024-03-10T02:55:34.942Z,100061.19
2024-03-10T02:56:08.866Z,100064.78
2024-03-10T02:56:40.880Z,100051.69
2024-03-10T02:57:12.975Z,100061.19
2024-03-10T02:57:44.991Z,100057.72
2024-03-10T02:58:17.005Z,100057.63
2024-03-10T02:58:49.142Z,100055.09
2024-03-10T02:59:21.251Z,100053.31
2024-03-10T02:59:53.228Z,100055.09
2024-03-10T03:00:25.258Z,100046.56
2024-03-10T03:00:57.262Z,100045.59
2024-03-10T03:01:29.361Z,100043.81
2024-03-10T03:02:01.549Z,100047.38
2024-03-10T03:02:34.672Z,100043.69
2024-03-10T03:03:06.744Z,100043.59
2024-03-10T03:03:38.825Z,100042.75
2024-03-10T03:04:10.850Z,100040.13
2024-03-10T03:04:42.877Z,100041.06
2024-03-10T03:05:16.334Z,100033.22
2024-03-10T03:05:49.303Z,100025.47
2024-03-10T03:06:21.431Z,100034.16
2024-03-10T03:06:53.772Z,100031.69
2024-03-10T03:07:25.742Z,100038.44
2024-03-10T03:07:58.805Z,100032.13
2024-03-10T03:08:30.930Z,100032.28
2024-03-10T03:09:03.027Z,100027.13
2024-03-10T03:09:35.029Z,100033.81
2024-03-10T03:10:07.676Z,100035.34
2024-03-10T03:10:39.877Z,100037.00
2024-03-10T03:11:13.273Z,100037.84
2024-03-10T03:11:45.350Z,100036.91
2024-03-10T03:12:17.657Z,100038.69
2024-03-10T03:12:50.028Z,100034.41
2024-03-10T03:13:22.084Z,100036.06
2024-03-10T03:13:54.231Z,100033.34
2024-03-10T03:14:26.389Z,100028.13
2024-03-10T03:14:58.498Z,100035.00
2024-03-10T03:15:30.856Z,100026.28
2024-03-10T03:16:03.206Z,100026.28
2024-03-10T03:16:35.284Z,100023.91
2024-03-10T03:17:07.912Z,100028.31
2024-03-10T03:17:40.073Z,100022.25
2024-03-10T03:18:12.192Z,100026.53
2024-03-10T03:18:44.372Z,100022.38
2024-03-10T03:19:16.466Z,100024.88
2024-03-10T03:19:48.510Z,100022.50
2024-03-10T03:20:20.873Z,100015.72
2024-03-10T03:20:53.002Z,100017.75
2024-03-10T03:21:24.998Z,100012.50
2024-03-10T03:21:57.063Z,100016.06
2024-03-10T03:22:29.087Z,100009.31
2024-03-10T03:23:01.123Z,100016.31
2024-03-10T03:23:33.204Z,100004.75
2024-03-10T03:24:05.700Z,100012.84
2024-03-10T03:24:38.833Z,100011.19
2024-03-10T03:25:11.181Z,100002.50
2024-03-10T03:25:43.222Z,100001.66
2024-03-10T03:26:17.218Z,100003.22
2024-03-10T03:26:49.239Z,100002.28
2024-03-10T03:27:21.327Z,100004.91
2024-03-10T03:27:53.450Z,100001.44
2024-03-10T03:28:25.475Z,100003.22
2024-03-10T03:28:57.499Z,100001.56
2024-03-10T03:29:29.592Z,99998.09
2024-03-10T03:30:01.570Z,99996.56
2024-03-10T03:30:33.596Z,99998.59
2024-03-10T03:31:05.733Z,100002.16
2024-03-10T03:31:37.780Z,100001.56
2024-03-10T03:32:09.781Z,99998.69
2024-03-10T03:32:41.857Z,100002.84
2024-03-10T03:33:14.013Z,100004.53
2024-03-10T03:33:46.084Z,99991.56
2024-03-10T03:34:18.655Z,99996.91
2024-03-10T03:34:50.681Z,100000.38
2024-03-10T03:35:22.925Z,100002.84
2024-03-10T03:35:55.013Z,100002.25
2024-03-10T03:36:27.273Z,100005.84
2024-03-10T03:36:59.337Z,100007.63
2024-03-10T03:37:31.447Z,100004.41
2024-03-10T03:38:03.814Z,100001.06
2024-03-10T03:38:36.555Z,100006.28
2024-03-10T03:39:08.758Z,100008.91
2024-03-10T03:39:40.846Z,100004.75
2024-03-10T03:40:13.480Z,99999.63
2024-03-10T03:40:45.554Z,100000.38
2024-03-10T03:41:19.226Z,99996.91
2024-03-10T03:41:51.342Z,99998.56
2024-03-10T03:42:24.293Z,99997.59
2024-03-10T03:42:56.365Z,99994.75
2024-03-10T03:43:28.422Z,99994.63
2024-03-10T03:44:00.520Z,99991.19
2024-03-10T03:44:32.596Z,99988.56
2024-03-10T03:45:05.116Z,99991.91
2024-03-10T03:45:37.385Z,99996.56
2024-03-10T03:46:09.450Z,99994.28
2024-03-10T03:46:41.531Z,99992.50
2024-03-10T03:47:13.557Z,99991.78
2024-03-10T03:47:45.700Z,99996.19
2024-03-10T03:48:19.788Z,100004.75
2024-03-10T03:48:52.155Z,100007.38
2024-03-10T03:49:24.157Z,100009.84
2024-03-10T03:49:56.145Z,100008.06
2024-03-10T03:50:28.212Z,100010.59
2024-03-10T03:51:00.340Z,100006.28
2024-03-10T03:51:32.401Z,100003.56
2024-03-10T03:52:05.732Z,100009.66
2024-03-10T03:52:37.764Z,100007.72
2024-03-10T03:53:09.775Z,100006.06
2024-03-10T03:53:41.822Z,100008.66
2024-03-10T03:54:14.680Z,100005.22
2024-03-10T03:54:46.746Z,100005.22
2024-03-10T03:55:19.183Z,99995.47
2024-03-10T03:55:51.269Z,100002.16
2024-03-10T03:56:24.854Z,100004.88
2024-03-10T03:56:56.976Z,100005.84
2024-03-10T03:57:29.009Z,99999.78
2024-03-10T03:58:01.052Z,100002.59
2024-03-10T03:58:33.196Z,100002.75
2024-03-10T03:59:05.472Z,100006.19
2024-03-10T03:59:39.377Z,100004.75
2024-03-10T04:00:12.470Z,100004.16
2024-03-10T04:00:44.617Z,100002.00
2024-03-10T04:01:16.746Z,100008.31
2024-03-10T04:01:48.904Z,100007.25
2024-03-10T04:02:20.925Z,100003.69
2024-03-10T04:02:52.974Z,100000.97
2024-03-10T04:03:24.992Z,100005.00
2024-03-10T04:03:57.018Z,99999.88
2024-03-10T04:04:29.005Z,100008.47
2024-03-10T04:05:01.067Z,100004.88
2024-03-10T04:05:33.216Z,100003.09
2024-03-10T04:06:05.606Z,100006.31
2024-03-10T04:06:37.611Z,99999.78
2024-03-10T04:07:09.688Z,99998.09
2024-03-10T04:07:45.227Z,99997.16
2024-03-10T04:08:17.259Z,99997.00
2024-03-10T04:08:50.046Z,99998.69
2024-03-10T04:09:22.106Z,99990.72
2024-03-10T04:09:54.081Z,99989.16
2024-03-10T04:10:26.096Z,99994.03
2024-03-10T04:10:58.221Z,99992.50
2024-03-10T04:11:31.870Z,99989.31
2024-03-10T04:12:04.668Z,99992.25
2024-03-10T04:12:37.060Z,99989.75
2024-03-10T04:13:09.425Z,99987.97
2024-03-10T04:13:41.434Z,99990.00
2024-03-10T04:14:13.542Z,99992.63
2024-03-10T04:14:45.597Z,99979.03
2024-03-10T04:15:17.683Z,99986.53
2024-03-10T04:15:49.860Z,99997.59
2024-03-10T04:16:22.002Z,99984.41
2024-03-10T04:16:54.101Z,99989.66
2024-03-10T04:17:26.199Z,99989.50
2024-03-10T04:17:58.418Z,99988.56
2024-03-10T04:18:30.603Z,99986.69
2024-03-10T04:19:02.694Z,99988.47
2024-03-10T04:19:34.780Z,99990.94
2024-03-10T04:20:07.688Z,99989.16
2024-03-10T04:20:39.715Z,99985.50
2024-03-10T04:21:11.794Z,99987.28
2024-03-10T04:21:43.965Z,99988.09
2024-03-10T04:22:16.011Z,99992.38
2024-03-10T04:22:48.037Z,99988.09
2024-03-10T04:23:23.976Z,99988.09
2024-03-10T04:23:56.884Z,99992.38
2024-03-10T04:24:28.942Z,99992.25
2024-03-10T04:25:01.076Z,99989.66
2024-03-10T04:25:33.334Z,99994.03
2024-03-10T04:26:05.454Z,99995.63
2024-03-10T04:26:41.602Z,99993.94
2024-03-10T04:27:15.032Z,99985.16
2024-03-10T04:27:47.028Z,99993.09
2024-03-10T04:28:19.123Z,99995.81
2024-03-10T04:28:51.213Z,99994.19
2024-03-10T04:29:23.296Z,100000.13
2024-03-10T04:29:55.285Z,99989.75
2024-03-10T04:30:27.263Z,99992.16
2024-03-10T04:30:59.491Z,99992.75
2024-03-10T04:31:31.556Z,99997.03
2024-03-10T04:32:03.994Z,99993.59
2024-03-10T04:32:36.072Z,99990.38
2024-03-10T04:33:08.145Z,99992.16
2024-03-10T04:33:40.216Z,99996.41
2024-03-10T04:34:12.570Z,99989.53
2024-03-10T04:34:44.690Z,99995.63
2024-03-10T04:35:17.091Z,99995.72
2024-03-10T04:35:49.154Z,99996.66
2024-03-10T04:36:21.229Z,99990.38
2024-03-10T04:36:53.356Z,99996.31
2024-03-10T04:37:25.415Z,99995.38
2024-03-10T04:37:57.554Z,99995.47
2024-03-10T04:38:29.778Z,99996.41
2024-03-10T04:39:01.927Z,99996.41
2024-03-10T04:39:33.990Z,99998.09
2024-03-10T04:40:07.176Z,99992.16
2024-03-10T04:40:39.220Z,99998.09
2024-03-10T04:41:11.404Z,99999.88
2024-03-10T04:41:44.824Z,99998.09
2024-03-10T04:42:16.914Z,99991.19
2024-03-10T04:42:48.975Z,99994.63
2024-03-10T04:43:23.644Z,99995.22
2024-03-10T04:43:56.104Z,100002.97
2024-03-10T04:44:28.196Z,99995.97
2024-03-10T04:45:00.295Z,100002.88
2024-03-10T04:45:32.394Z,99998.59
2024-03-10T04:46:04.686Z,99993.59
2024-03-10T04:46:37.547Z,99996.31
2024-03-10T04:47:09.666Z,99998.94
2024-03-10T04:47:41.892Z,99985.34
2024-03-10T04:48:14.065Z,99998.69
2024-03-10T04:48:46.282Z,99988.34
2024-03-10T04:49:18.326Z,99998.94
2024-03-10T04:49:50.411Z,99999.19
2024-03-10T04:50:22.576Z,100003.31
2024-03-10T04:50:54.821Z,99993.94
2024-03-10T04:51:26.961Z,100002.84
2024-03-10T04:51:59.146Z,99998.34
2024-03-10T04:52:31.306Z,99996.41
2024-03-10T04:53:03.556Z,100008.06
2024-03-10T04:53:35.660Z,99997.50
2024-03-10T04:54:07.679Z,100001.78
2024-03-10T04:54:39.709Z,100006.31
2024-03-10T04:55:11.731Z,100009.06
2024-03-10T04:55:43.712Z,100003.94
2024-03-10T04:56:15.759Z,99982.97
2024-03-10T04:56:49.304Z,100005.34
2024-03-10T04:57:22.935Z,100007.97
2024-03-10T04:57:57.049Z,100008.81
2024-03-10T04:58:30.065Z,100006.19
2024-03-10T04:59:02.300Z,100004.41
2024-03-10T04:59:36.191Z,100010.59
2024-03-10T05:00:10.271Z,100010.00
2024-03-10T05:00:42.518Z,100009.91
2024-03-10T05:01:18.068Z,100007.72
2024-03-10T05:01:53.034Z,100012.03
2024-03-10T05:02:26.774Z,100001.56
2024-03-10T05:02:58.918Z,100004.91
2024-03-10T05:03:31.033Z,100000.59
2024-03-10T05:04:03.122Z,100005.13
2024-03-10T05:04:35.734Z,100005.13
2024-03-10T05:05:09.190Z,100003.31
2024-03-10T05:05:41.812Z,100001.56
2024-03-10T05:06:14.814Z,100003.22
2024-03-10T05:06:46.891Z,100004.16
2024-03-10T05:07:18.942Z,99994.53
2024-03-10T05:07:51.026Z,99996.66
2024-03-10T05:08:23.114Z,100000.97
2024-03-10T05:08:55.497Z,99993.94
2024-03-10T05:09:27.513Z,99999.41
2024-03-10T05:10:00.270Z,99998.69
2024-03-10T05:10:32.489Z,99996.81
2024-03-10T05:11:04.801Z,99995.00
2024-03-10T05:11:37.335Z,99998.09
2024-03-10T05:12:11.281Z,100005.94
2024-03-10T05:12:43.377Z,99993.56
2024-03-10T05:13:15.409Z,99992.03
2024-03-10T05:13:47.690Z,99992.13
2024-03-10T05:14:19.778Z,99995.47
2024-03-10T05:14:51.838Z,99989.50
2024-03-10T05:15:24.656Z,99996.41
2024-03-10T05:15:56.666Z,99992.03
2024-03-10T05:16:28.718Z,99993.94
2024-03-10T05:17:01.072Z,99994.06
2024-03-10T05:17:33.347Z,99994.16
2024-03-10T05:18:05.910Z,99996.78
2024-03-10T05:18:38.082Z,99996.06
2024-03-10T05:19:10.977Z,99997.75
2024-03-10T05:19:43.163Z,99992.50
2024-03-10T05:20:16.659Z,99997.59
2024-03-10T05:20:48.840Z,99995.13
2024-03-10T05:21:20.976Z,99998.44
2024-03-10T05:21:53.040Z,100001.16
2024-03-10T05:22:25.088Z,100002.25
2024-03-10T05:22:57.147Z,100007.25
2024-03-10T05:23:29.334Z,100008.91
2024-03-10T05:24:01.711Z,100004.63
2024-03-10T05:24:33.692Z,100007.84
2024-03-10T05:25:06.591Z,100008.47
2024-03-10T05:25:38.636Z,100009.66
2024-03-10T05:26:10.655Z,100007.97
2024-03-10T05:26:42.644Z,100006.06
2024-03-10T05:27:16.028Z,100002.16
2024-03-10T05:27:48.047Z,100006.28
2024-03-10T05:28:20.065Z,100009.50
2024-03-10T05:28:52.239Z,99999.78
2024-03-10T05:29:24.304Z,100006.06
2024-03-10T05:29:56.434Z,100013.81
2024-03-10T05:30:28.428Z,100003.09
2024-03-10T05:31:00.457Z,100005.13
2024-03-10T05:31:33.899Z,100010.09
2024-03-10T05:32:06.247Z,100009.06
2024-03-10T05:32:38.457Z,100006.91
2024-03-10T05:33:10.576Z,100012.03
2024-03-10T05:33:42.572Z,100009.16
2024-03-10T05:34:14.572Z,100010.84
2024-03-10T05:34:46.703Z,100004.88
2024-03-10T05:35:18.971Z,100008.56
2024-03-10T05:35:51.068Z,100010.34
2024-03-10T05:36:23.089Z,100009.75
2024-03-10T05:36:55.118Z,100004.41
2024-03-10T05:37:27.138Z,100007.03
2024-03-10T05:37:59.162Z,100007.97
2024-03-10T05:38:31.305Z,100014.75
2024-03-10T05:39:04.102Z,100014.63
2024-03-10T05:39:36.166Z,100012.13
2024-03-10T05:40:09.248Z,100012.63
2024-03-10T05:40:41.283Z,100016.19
2024-03-10T05:41:13.348Z,100012.13
2024-03-10T05:41:45.430Z,100011.63
2024-03-10T05:42:18.786Z,100011.28
2024-03-10T05:42:50.787Z,100014.63
2024-03-10T05:43:22.767Z,100017.25
2024-03-10T05:43:54.844Z,100007.38
2024-03-10T05:44:26.954Z,100004.16
2024-03-10T05:44:59.048Z,100006.53
2024-03-10T05:45:31.030Z,100018.53
2024-03-10T05:46:03.109Z,100011.78
2024-03-10T05:46:35.091Z,100011.78
2024-03-10T05:47:07.382Z,100012.47
2024-03-10T05:47:39.477Z,100014.25
2024-03-10T05:48:11.540Z,100013.44
2024-03-10T05:48:43.977Z,100014.63
2024-03-10T05:49:16.052Z,100015.34
2024-03-10T05:49:48.101Z,100015.22
2024-03-10T05:50:20.238Z,100011.88
2024-03-10T05:50:52.264Z,100010.94
2024-03-10T05:51:24.295Z,100017.72
2024-03-10T05:51:56.380Z,100017.00
2024-03-10T05:52:28.476Z,100008.44
2024-03-10T05:53:00.636Z,100012.81
2024-03-10T05:53:32.707Z,100005.94
2024-03-10T05:54:04.952Z,100004.28
2024-03-10T05:54:36.977Z,100018.69
2024-03-10T05:55:09.432Z,100014.25
2024-03-10T05:55:41.473Z,100013.56
2024-03-10T05:56:13.941Z,100016.41
2024-03-10T05:56:46.044Z,100012.13
2024-03-10T05:57:19.441Z,100014.84
2024-03-10T05:57:51.462Z,100021.16
2024-03-10T05:58:23.528Z,100029.84
2024-03-10T05:58:55.595Z,100017.47
2024-03-10T05:59:27.694Z,100019.03
2024-03-10T06:00:00.516Z,100024.25
2024-03-10T06:00:32.722Z,100028.41
2024-03-10T06:01:05.072Z,100023.19
2024-03-10T06:01:37.121Z,100022.59
2024-03-10T06:02:09.293Z,100032.31
2024-03-10T06:02:41.424Z,100032.56
2024-03-10T06:03:13.455Z,100031.53
2024-03-10T06:03:45.454Z,100019.47
2024-03-10T06:04:17.484Z,100031.53
2024-03-10T06:04:49.531Z,100023.53
2024-03-10T06:05:21.608Z,100018.53
2024-03-10T06:05:54.361Z,100017.00
2024-03-10T06:06:26.909Z,100021.16
2024-03-10T06:06:58.912Z,100031.03
2024-03-10T06:07:31.007Z,100024.25
2024-03-10T06:08:03.220Z,100023.19
2024-03-10T06:08:35.291Z,100021.06
2024-03-10T06:09:07.393Z,100029.94
2024-03-10T06:09:39.433Z,100036.03
2024-03-10T06:10:11.943Z,100026.50
2024-03-10T06:10:44.043Z,100035.19
2024-03-10T06:11:16.272Z,100022.94
2024-03-10T06:11:48.561Z,100033.41